sensor_id;sensor_type;location;lat;lon;timestamp;P1;durP1;ratioP1;P2;durP2;ratioP2
45354;SDS011;31091;48.758;9.150;2022-08-19T00:01:19;15.50;;;12.18;;
45354;SDS011;31091;48.758;9.150;2022-08-19T00:04:06;14.90;;;12.25;;
45354;SDS011;31091;48.758;9.150;2022-08-19T00:06:52;15.57;;;11.50;;
45354;SDS011;31091;48.758;9.150;2022-08-19T00:09:37;15.85;;;11.13;;
45354;SDS011;31091;48.758;9.150;2022-08-19T00:12:23;14.45;;;11.52;;
45354;SDS011;31091;48.758;9.150;2022-08-19T00:15:10;15.15;;;11.93;;
45354;SDS011;31091;48.758;9.150;2022-08-19T00:17:57;16.48;;;12.05;;
45354;SDS011;31091;48.758;9.150;2022-08-19T00:20:43;12.45;;;10.27;;
45354;SDS011;31091;48.758;9.150;2022-08-19T00:23:29;17.92;;;12.80;;
45354;SDS011;31091;48.758;9.150;2022-08-19T00:26:15;13.25;;;10.93;;
45354;SDS011;31091;48.758;9.150;2022-08-19T00:29:01;14.48;;;10.90;;
45354;SDS011;31091;48.758;9.150;2022-08-19T00:31:47;14.75;;;10.57;;
45354;SDS011;31091;48.758;9.150;2022-08-19T00:34:32;17.15;;;12.75;;
45354;SDS011;31091;48.758;9.150;2022-08-19T00:37:18;19.38;;;12.55;;
45354;SDS011;31091;48.758;9.150;2022-08-19T00:40:05;15.55;;;12.50;;
45354;SDS011;31091;48.758;9.150;2022-08-19T00:42:51;13.50;;;10.98;;
45354;SDS011;31091;48.758;9.150;2022-08-19T00:45:39;16.25;;;10.98;;
45354;SDS011;31091;48.758;9.150;2022-08-19T00:48:26;14.15;;;11.50;;
45354;SDS011;31091;48.758;9.150;2022-08-19T00:51:12;15.90;;;11.98;;
45354;SDS011;31091;48.758;9.150;2022-08-19T00:53:58;14.70;;;10.52;;
45354;SDS011;31091;48.758;9.150;2022-08-19T00:56:44;14.45;;;11.70;;
45354;SDS011;31091;48.758;9.150;2022-08-19T00:59:30;14.63;;;10.93;;
45354;SDS011;31091;48.758;9.150;2022-08-19T01:02:15;13.77;;;11.60;;
45354;SDS011;31091;48.758;9.150;2022-08-19T01:05:02;14.40;;;11.50;;
45354;SDS011;31091;48.758;9.150;2022-08-19T01:07:49;14.27;;;12.00;;
45354;SDS011;31091;48.758;9.150;2022-08-19T01:10:40;14.05;;;11.20;;
45354;SDS011;31091;48.758;9.150;2022-08-19T01:13:27;14.13;;;12.05;;
45354;SDS011;31091;48.758;9.150;2022-08-19T01:16:14;15.50;;;12.15;;
45354;SDS011;31091;48.758;9.150;2022-08-19T01:19:00;14.13;;;11.35;;
45354;SDS011;31091;48.758;9.150;2022-08-19T01:21:52;14.20;;;11.38;;
45354;SDS011;31091;48.758;9.150;2022-08-19T01:24:39;14.57;;;11.82;;
45354;SDS011;31091;48.758;9.150;2022-08-19T01:27:24;13.90;;;11.32;;
45354;SDS011;31091;48.758;9.150;2022-08-19T01:30:12;16.30;;;11.88;;
45354;SDS011;31091;48.758;9.150;2022-08-19T01:32:58;15.73;;;12.43;;
45354;SDS011;31091;48.758;9.150;2022-08-19T01:35:45;15.68;;;12.23;;
45354;SDS011;31091;48.758;9.150;2022-08-19T01:38:35;14.07;;;10.95;;
45354;SDS011;31091;48.758;9.150;2022-08-19T01:41:21;14.82;;;12.27;;
45354;SDS011;31091;48.758;9.150;2022-08-19T01:44:09;12.77;;;10.43;;
45354;SDS011;31091;48.758;9.150;2022-08-19T01:46:55;16.42;;;11.95;;
45354;SDS011;31091;48.758;9.150;2022-08-19T01:49:40;15.23;;;11.70;;
45354;SDS011;31091;48.758;9.150;2022-08-19T01:52:26;14.45;;;12.15;;
45354;SDS011;31091;48.758;9.150;2022-08-19T01:55:14;17.33;;;12.70;;
45354;SDS011;31091;48.758;9.150;2022-08-19T01:58:01;15.18;;;12.30;;
45354;SDS011;31091;48.758;9.150;2022-08-19T02:00:47;17.85;;;13.30;;
45354;SDS011;31091;48.758;9.150;2022-08-19T02:03:33;19.60;;;13.00;;
45354;SDS011;31091;48.758;9.150;2022-08-19T02:06:20;16.30;;;13.00;;
45354;SDS011;31091;48.758;9.150;2022-08-19T02:09:06;19.15;;;13.93;;
45354;SDS011;31091;48.758;9.150;2022-08-19T02:11:52;17.17;;;12.85;;
45354;SDS011;31091;48.758;9.150;2022-08-19T02:14:38;15.60;;;13.40;;
45354;SDS011;31091;48.758;9.150;2022-08-19T02:17:24;15.60;;;12.90;;
45354;SDS011;31091;48.758;9.150;2022-08-19T02:20:10;15.90;;;12.85;;
45354;SDS011;31091;48.758;9.150;2022-08-19T02:22:55;16.98;;;12.57;;
45354;SDS011;31091;48.758;9.150;2022-08-19T02:25:41;17.02;;;13.82;;
45354;SDS011;31091;48.758;9.150;2022-08-19T02:28:27;17.48;;;12.98;;
45354;SDS011;31091;48.758;9.150;2022-08-19T02:31:14;17.73;;;13.98;;
45354;SDS011;31091;48.758;9.150;2022-08-19T02:34:02;17.33;;;14.00;;
45354;SDS011;31091;48.758;9.150;2022-08-19T02:36:48;17.92;;;14.20;;
45354;SDS011;31091;48.758;9.150;2022-08-19T02:39:33;20.70;;;15.30;;
45354;SDS011;31091;48.758;9.150;2022-08-19T02:42:19;18.40;;;14.93;;
45354;SDS011;31091;48.758;9.150;2022-08-19T02:45:05;18.13;;;14.35;;
45354;SDS011;31091;48.758;9.150;2022-08-19T02:47:50;19.65;;;14.18;;
45354;SDS011;31091;48.758;9.150;2022-08-19T02:50:39;15.88;;;13.20;;
45354;SDS011;31091;48.758;9.150;2022-08-19T02:53:26;17.20;;;14.02;;
45354;SDS011;31091;48.758;9.150;2022-08-19T02:56:11;17.15;;;14.23;;
45354;SDS011;31091;48.758;9.150;2022-08-19T02:58:57;18.00;;;15.55;;
45354;SDS011;31091;48.758;9.150;2022-08-19T03:01:43;17.13;;;14.38;;
45354;SDS011;31091;48.758;9.150;2022-08-19T03:04:29;18.10;;;14.50;;
45354;SDS011;31091;48.758;9.150;2022-08-19T03:07:15;18.27;;;16.05;;
45354;SDS011;31091;48.758;9.150;2022-08-19T03:10:01;19.00;;;14.35;;
45354;SDS011;31091;48.758;9.150;2022-08-19T03:12:47;20.35;;;16.55;;
45354;SDS011;31091;48.758;9.150;2022-08-19T03:15:32;21.38;;;15.90;;
45354;SDS011;31091;48.758;9.150;2022-08-19T03:18:18;18.45;;;15.65;;
45354;SDS011;31091;48.758;9.150;2022-08-19T03:21:04;19.02;;;15.13;;
45354;SDS011;31091;48.758;9.150;2022-08-19T03:23:50;23.73;;;17.35;;
45354;SDS011;31091;48.758;9.150;2022-08-19T03:26:43;21.35;;;15.77;;
45354;SDS011;31091;48.758;9.150;2022-08-19T03:29:29;19.13;;;14.93;;
45354;SDS011;31091;48.758;9.150;2022-08-19T03:32:16;20.50;;;16.10;;
45354;SDS011;31091;48.758;9.150;2022-08-19T03:35:02;18.85;;;16.60;;
45354;SDS011;31091;48.758;9.150;2022-08-19T03:37:48;20.75;;;16.42;;
45354;SDS011;31091;48.758;9.150;2022-08-19T03:40:36;19.08;;;15.73;;
45354;SDS011;31091;48.758;9.150;2022-08-19T03:43:22;19.73;;;15.77;;
45354;SDS011;31091;48.758;9.150;2022-08-19T03:46:09;21.52;;;17.10;;
45354;SDS011;31091;48.758;9.150;2022-08-19T03:48:55;20.55;;;16.58;;
45354;SDS011;31091;48.758;9.150;2022-08-19T03:51:42;22.02;;;17.15;;
45354;SDS011;31091;48.758;9.150;2022-08-19T03:54:28;22.48;;;17.02;;
45354;SDS011;31091;48.758;9.150;2022-08-19T03:57:13;20.25;;;17.00;;
45354;SDS011;31091;48.758;9.150;2022-08-19T03:59:59;20.88;;;18.50;;
45354;SDS011;31091;48.758;9.150;2022-08-19T04:02:44;21.15;;;17.48;;
45354;SDS011;31091;48.758;9.150;2022-08-19T04:05:30;19.02;;;16.83;;
45354;SDS011;31091;48.758;9.150;2022-08-19T04:08:16;20.60;;;16.40;;
45354;SDS011;31091;48.758;9.150;2022-08-19T04:11:06;22.92;;;17.77;;
45354;SDS011;31091;48.758;9.150;2022-08-19T04:13:53;21.80;;;17.60;;
45354;SDS011;31091;48.758;9.150;2022-08-19T04:16:39;24.63;;;17.42;;
45354;SDS011;31091;48.758;9.150;2022-08-19T04:19:25;23.88;;;19.08;;
45354;SDS011;31091;48.758;9.150;2022-08-19T04:22:10;23.70;;;18.25;;
45354;SDS011;31091;48.758;9.150;2022-08-19T04:24:56;23.80;;;19.02;;
45354;SDS011;31091;48.758;9.150;2022-08-19T04:27:42;25.85;;;19.73;;
45354;SDS011;31091;48.758;9.150;2022-08-19T04:30:36;23.48;;;19.35;;
45354;SDS011;31091;48.758;9.150;2022-08-19T04:33:23;22.88;;;17.95;;
45354;SDS011;31091;48.758;9.150;2022-08-19T04:36:20;24.10;;;19.00;;
45354;SDS011;31091;48.758;9.150;2022-08-19T04:39:10;24.35;;;18.38;;
45354;SDS011;31091;48.758;9.150;2022-08-19T04:41:56;22.70;;;19.27;;
45354;SDS011;31091;48.758;9.150;2022-08-19T04:45:00;22.33;;;18.67;;
45354;SDS011;31091;48.758;9.150;2022-08-19T04:47:49;21.40;;;18.08;;
45354;SDS011;31091;48.758;9.150;2022-08-19T04:50:35;24.45;;;19.13;;
45354;SDS011;31091;48.758;9.150;2022-08-19T04:53:20;22.52;;;18.02;;
45354;SDS011;31091;48.758;9.150;2022-08-19T04:56:11;23.52;;;19.17;;
45354;SDS011;31091;48.758;9.150;2022-08-19T04:58:57;22.50;;;18.13;;
45354;SDS011;31091;48.758;9.150;2022-08-19T05:01:43;23.10;;;19.17;;
45354;SDS011;31091;48.758;9.150;2022-08-19T05:04:28;24.13;;;18.35;;
45354;SDS011;31091;48.758;9.150;2022-08-19T05:07:16;21.63;;;17.67;;
45354;SDS011;31091;48.758;9.150;2022-08-19T05:10:03;24.45;;;19.40;;
45354;SDS011;31091;48.758;9.150;2022-08-19T05:12:49;22.67;;;18.20;;
45354;SDS011;31091;48.758;9.150;2022-08-19T05:15:35;22.83;;;18.83;;
45354;SDS011;31091;48.758;9.150;2022-08-19T05:18:21;22.20;;;18.40;;
45354;SDS011;31091;48.758;9.150;2022-08-19T05:21:26;22.85;;;19.67;;
45354;SDS011;31091;48.758;9.150;2022-08-19T05:24:30;21.42;;;18.38;;
45354;SDS011;31091;48.758;9.150;2022-08-19T05:27:16;23.80;;;18.73;;
45354;SDS011;31091;48.758;9.150;2022-08-19T05:30:02;22.60;;;18.52;;
45354;SDS011;31091;48.758;9.150;2022-08-19T05:32:47;22.75;;;18.48;;
45354;SDS011;31091;48.758;9.150;2022-08-19T05:35:33;24.83;;;17.17;;
45354;SDS011;31091;48.758;9.150;2022-08-19T05:38:19;21.85;;;18.33;;
45354;SDS011;31091;48.758;9.150;2022-08-19T05:41:12;18.45;;;15.55;;
45354;SDS011;31091;48.758;9.150;2022-08-19T05:43:58;21.30;;;17.77;;
45354;SDS011;31091;48.758;9.150;2022-08-19T05:46:46;20.58;;;16.38;;
45354;SDS011;31091;48.758;9.150;2022-08-19T05:49:35;19.63;;;16.60;;
45354;SDS011;31091;48.758;9.150;2022-08-19T05:52:22;22.30;;;18.90;;
45354;SDS011;31091;48.758;9.150;2022-08-19T05:55:07;22.70;;;17.20;;
45354;SDS011;31091;48.758;9.150;2022-08-19T05:57:53;19.95;;;17.00;;
45354;SDS011;31091;48.758;9.150;2022-08-19T06:00:38;19.67;;;17.13;;
45354;SDS011;31091;48.758;9.150;2022-08-19T06:03:25;21.55;;;16.70;;
45354;SDS011;31091;48.758;9.150;2022-08-19T06:06:11;21.70;;;17.42;;
45354;SDS011;31091;48.758;9.150;2022-08-19T06:08:57;21.60;;;17.17;;
45354;SDS011;31091;48.758;9.150;2022-08-19T06:11:44;21.38;;;18.48;;
45354;SDS011;31091;48.758;9.150;2022-08-19T06:14:30;21.63;;;18.42;;
45354;SDS011;31091;48.758;9.150;2022-08-19T06:17:16;19.45;;;16.42;;
45354;SDS011;31091;48.758;9.150;2022-08-19T06:20:06;22.40;;;18.20;;
45354;SDS011;31091;48.758;9.150;2022-08-19T06:22:52;22.83;;;19.33;;
45354;SDS011;31091;48.758;9.150;2022-08-19T06:25:39;22.08;;;18.05;;
45354;SDS011;31091;48.758;9.150;2022-08-19T06:28:25;21.20;;;18.05;;
45354;SDS011;31091;48.758;9.150;2022-08-19T06:31:10;21.40;;;18.27;;
45354;SDS011;31091;48.758;9.150;2022-08-19T06:33:58;24.48;;;18.30;;
45354;SDS011;31091;48.758;9.150;2022-08-19T06:36:45;21.40;;;16.90;;
45354;SDS011;31091;48.758;9.150;2022-08-19T06:39:33;22.15;;;18.70;;
45354;SDS011;31091;48.758;9.150;2022-08-19T06:42:19;21.30;;;18.33;;
45354;SDS011;31091;48.758;9.150;2022-08-19T06:45:05;20.05;;;17.83;;
45354;SDS011;31091;48.758;9.150;2022-08-19T06:47:51;23.20;;;18.13;;
45354;SDS011;31091;48.758;9.150;2022-08-19T06:50:41;20.65;;;17.98;;
45354;SDS011;31091;48.758;9.150;2022-08-19T06:53:26;22.92;;;18.63;;
45354;SDS011;31091;48.758;9.150;2022-08-19T06:56:13;24.25;;;18.15;;
45354;SDS011;31091;48.758;9.150;2022-08-19T06:59:03;24.55;;;17.10;;
45354;SDS011;31091;48.758;9.150;2022-08-19T07:01:50;21.73;;;17.95;;
45354;SDS011;31091;48.758;9.150;2022-08-19T07:04:37;20.45;;;16.98;;
45354;SDS011;31091;48.758;9.150;2022-08-19T07:07:23;23.85;;;18.20;;
45354;SDS011;31091;48.758;9.150;2022-08-19T07:10:09;22.65;;;18.73;;
45354;SDS011;31091;48.758;9.150;2022-08-19T07:12:55;23.23;;;18.55;;
45354;SDS011;31091;48.758;9.150;2022-08-19T07:15:40;22.08;;;17.08;;
45354;SDS011;31091;48.758;9.150;2022-08-19T07:18:26;19.80;;;17.20;;
45354;SDS011;31091;48.758;9.150;2022-08-19T07:21:13;21.70;;;17.88;;
45354;SDS011;31091;48.758;9.150;2022-08-19T07:24:00;20.27;;;17.80;;
45354;SDS011;31091;48.758;9.150;2022-08-19T07:26:46;20.75;;;16.70;;
45354;SDS011;31091;48.758;9.150;2022-08-19T07:29:32;21.17;;;18.02;;
45354;SDS011;31091;48.758;9.150;2022-08-19T07:32:18;19.30;;;16.88;;
45354;SDS011;31091;48.758;9.150;2022-08-19T07:35:04;19.55;;;17.45;;
45354;SDS011;31091;48.758;9.150;2022-08-19T07:37:51;22.40;;;18.58;;
45354;SDS011;31091;48.758;9.150;2022-08-19T07:40:38;21.73;;;17.63;;
45354;SDS011;31091;48.758;9.150;2022-08-19T07:43:23;22.33;;;18.30;;
45354;SDS011;31091;48.758;9.150;2022-08-19T07:46:10;21.58;;;18.40;;
45354;SDS011;31091;48.758;9.150;2022-08-19T07:48:57;23.20;;;16.30;;
45354;SDS011;31091;48.758;9.150;2022-08-19T07:51:44;22.40;;;17.00;;
45354;SDS011;31091;48.758;9.150;2022-08-19T07:54:31;21.52;;;17.05;;
45354;SDS011;31091;48.758;9.150;2022-08-19T07:57:17;22.60;;;17.95;;
45354;SDS011;31091;48.758;9.150;2022-08-19T08:00:04;20.67;;;17.02;;
45354;SDS011;31091;48.758;9.150;2022-08-19T08:02:51;21.35;;;17.60;;
45354;SDS011;31091;48.758;9.150;2022-08-19T08:05:37;20.92;;;17.48;;
45354;SDS011;31091;48.758;9.150;2022-08-19T08:08:41;20.33;;;15.93;;
45354;SDS011;31091;48.758;9.150;2022-08-19T08:11:59;22.33;;;17.17;;
45354;SDS011;31091;48.758;9.150;2022-08-19T08:14:46;19.85;;;15.77;;
45354;SDS011;31091;48.758;9.150;2022-08-19T08:17:32;21.33;;;16.02;;
45354;SDS011;31091;48.758;9.150;2022-08-19T08:20:19;19.75;;;15.60;;
45354;SDS011;31091;48.758;9.150;2022-08-19T08:23:04;19.42;;;15.20;;
45354;SDS011;31091;48.758;9.150;2022-08-19T08:26:09;17.77;;;15.88;;
45354;SDS011;31091;48.758;9.150;2022-08-19T08:28:54;21.80;;;16.90;;
45354;SDS011;31091;48.758;9.150;2022-08-19T08:31:40;19.73;;;16.23;;
45354;SDS011;31091;48.758;9.150;2022-08-19T08:34:26;17.15;;;13.95;;
45354;SDS011;31091;48.758;9.150;2022-08-19T08:37:11;19.02;;;16.35;;
45354;SDS011;31091;48.758;9.150;2022-08-19T08:39:57;20.48;;;15.55;;
45354;SDS011;31091;48.758;9.150;2022-08-19T08:42:44;20.85;;;15.60;;
45354;SDS011;31091;48.758;9.150;2022-08-19T08:45:33;18.38;;;15.13;;
45354;SDS011;31091;48.758;9.150;2022-08-19T08:48:22;17.38;;;14.88;;
45354;SDS011;31091;48.758;9.150;2022-08-19T08:51:10;20.48;;;16.48;;
45354;SDS011;31091;48.758;9.150;2022-08-19T08:53:57;18.25;;;15.45;;
45354;SDS011;31091;48.758;9.150;2022-08-19T08:56:43;16.75;;;14.95;;
45354;SDS011;31091;48.758;9.150;2022-08-19T08:59:30;21.98;;;15.50;;
45354;SDS011;31091;48.758;9.150;2022-08-19T09:02:19;20.02;;;16.63;;
45354;SDS011;31091;48.758;9.150;2022-08-19T09:05:05;19.17;;;14.65;;
45354;SDS011;31091;48.758;9.150;2022-08-19T09:08:04;22.13;;;16.40;;
45354;SDS011;31091;48.758;9.150;2022-08-19T09:14:13;20.35;;;15.18;;
45354;SDS011;31091;48.758;9.150;2022-08-19T09:16:48;19.30;;;15.65;;
45354;SDS011;31091;48.758;9.150;2022-08-19T09:19:46;19.65;;;16.67;;
45354;SDS011;31091;48.758;9.150;2022-08-19T09:22:32;19.35;;;15.73;;
45354;SDS011;31091;48.758;9.150;2022-08-19T09:25:18;16.35;;;14.20;;
45354;SDS011;31091;48.758;9.150;2022-08-19T09:28:06;20.88;;;15.18;;
45354;SDS011;31091;48.758;9.150;2022-08-19T09:30:52;18.10;;;14.68;;
45354;SDS011;31091;48.758;9.150;2022-08-19T09:33:38;16.38;;;13.45;;
45354;SDS011;31091;48.758;9.150;2022-08-19T09:36:24;17.65;;;14.90;;
45354;SDS011;31091;48.758;9.150;2022-08-19T09:39:11;18.65;;;14.43;;
45354;SDS011;31091;48.758;9.150;2022-08-19T09:41:56;18.52;;;15.88;;
45354;SDS011;31091;48.758;9.150;2022-08-19T09:44:42;18.17;;;12.48;;
45354;SDS011;31091;48.758;9.150;2022-08-19T09:47:28;16.65;;;13.52;;
45354;SDS011;31091;48.758;9.150;2022-08-19T09:50:13;17.20;;;13.45;;
45354;SDS011;31091;48.758;9.150;2022-08-19T09:52:59;17.02;;;14.27;;
45354;SDS011;31091;48.758;9.150;2022-08-19T09:55:45;19.98;;;14.57;;
45354;SDS011;31091;48.758;9.150;2022-08-19T09:58:31;13.73;;;12.23;;
45354;SDS011;31091;48.758;9.150;2022-08-19T10:01:18;20.92;;;12.52;;
45354;SDS011;31091;48.758;9.150;2022-08-19T10:04:04;14.30;;;12.63;;
45354;SDS011;31091;48.758;9.150;2022-08-19T10:09:39;15.52;;;11.65;;
45354;SDS011;31091;48.758;9.150;2022-08-19T10:12:26;16.38;;;12.60;;
45354;SDS011;31091;48.758;9.150;2022-08-19T10:15:11;15.88;;;12.30;;
45354;SDS011;31091;48.758;9.150;2022-08-19T10:17:58;15.25;;;12.48;;
45354;SDS011;31091;48.758;9.150;2022-08-19T10:20:44;17.45;;;11.48;;
45354;SDS011;31091;48.758;9.150;2022-08-19T10:23:30;13.35;;;10.82;;
45354;SDS011;31091;48.758;9.150;2022-08-19T10:26:17;14.73;;;10.70;;
45354;SDS011;31091;48.758;9.150;2022-08-19T10:29:04;14.55;;;11.48;;
45354;SDS011;31091;48.758;9.150;2022-08-19T10:31:50;15.77;;;10.35;;
45354;SDS011;31091;48.758;9.150;2022-08-19T10:34:36;16.17;;;11.43;;
45354;SDS011;31091;48.758;9.150;2022-08-19T10:37:22;14.70;;;11.43;;
45354;SDS011;31091;48.758;9.150;2022-08-19T10:40:08;14.70;;;11.45;;
45354;SDS011;31091;48.758;9.150;2022-08-19T10:42:55;13.88;;;9.70;;
45354;SDS011;31091;48.758;9.150;2022-08-19T10:45:41;16.58;;;12.23;;
45354;SDS011;31091;48.758;9.150;2022-08-19T10:48:27;13.15;;;9.52;;
45354;SDS011;31091;48.758;9.150;2022-08-19T10:51:13;14.55;;;10.23;;
45354;SDS011;31091;48.758;9.150;2022-08-19T10:54:17;13.30;;;9.02;;
45354;SDS011;31091;48.758;9.150;2022-08-19T10:57:03;12.73;;;9.15;;
45354;SDS011;31091;48.758;9.150;2022-08-19T10:59:48;13.43;;;10.27;;
45354;SDS011;31091;48.758;9.150;2022-08-19T11:02:34;14.10;;;8.52;;
45354;SDS011;31091;48.758;9.150;2022-08-19T11:05:20;12.73;;;9.05;;
45354;SDS011;31091;48.758;9.150;2022-08-19T11:08:08;13.75;;;8.98;;
45354;SDS011;31091;48.758;9.150;2022-08-19T11:10:58;11.90;;;8.63;;
45354;SDS011;31091;48.758;9.150;2022-08-19T11:13:46;10.85;;;8.77;;
45354;SDS011;31091;48.758;9.150;2022-08-19T11:16:32;11.88;;;8.95;;
45354;SDS011;31091;48.758;9.150;2022-08-19T11:19:18;13.60;;;8.68;;
45354;SDS011;31091;48.758;9.150;2022-08-19T11:22:06;14.38;;;9.70;;
45354;SDS011;31091;48.758;9.150;2022-08-19T11:24:54;11.98;;;9.02;;
45354;SDS011;31091;48.758;9.150;2022-08-19T11:27:40;11.73;;;8.57;;
45354;SDS011;31091;48.758;9.150;2022-08-19T11:30:28;15.35;;;8.73;;
45354;SDS011;31091;48.758;9.150;2022-08-19T11:33:14;12.20;;;8.32;;
45354;SDS011;31091;48.758;9.150;2022-08-19T11:35:59;12.15;;;9.07;;
45354;SDS011;31091;48.758;9.150;2022-08-19T11:38:47;11.27;;;8.73;;
45354;SDS011;31091;48.758;9.150;2022-08-19T11:41:34;13.48;;;9.00;;
45354;SDS011;31091;48.758;9.150;2022-08-19T11:44:19;11.95;;;8.25;;
45354;SDS011;31091;48.758;9.150;2022-08-19T11:47:05;13.32;;;8.95;;
45354;SDS011;31091;48.758;9.150;2022-08-19T11:49:52;12.93;;;9.10;;
45354;SDS011;31091;48.758;9.150;2022-08-19T11:52:38;13.80;;;9.15;;
45354;SDS011;31091;48.758;9.150;2022-08-19T11:55:24;10.63;;;8.45;;
45354;SDS011;31091;48.758;9.150;2022-08-19T11:58:09;11.20;;;8.70;;
45354;SDS011;31091;48.758;9.150;2022-08-19T12:00:55;12.73;;;8.23;;
45354;SDS011;31091;48.758;9.150;2022-08-19T12:03:41;11.88;;;7.53;;
45354;SDS011;31091;48.758;9.150;2022-08-19T12:06:29;10.75;;;7.90;;
45354;SDS011;31091;48.758;9.150;2022-08-19T12:09:15;11.77;;;8.65;;
45354;SDS011;31091;48.758;9.150;2022-08-19T12:12:01;13.52;;;7.90;;
45354;SDS011;31091;48.758;9.150;2022-08-19T12:14:49;14.05;;;7.80;;
45354;SDS011;31091;48.758;9.150;2022-08-19T12:17:41;10.40;;;7.22;;
45354;SDS011;31091;48.758;9.150;2022-08-19T12:20:27;10.27;;;7.63;;
45354;SDS011;31091;48.758;9.150;2022-08-19T12:23:13;11.57;;;7.85;;
45354;SDS011;31091;48.758;9.150;2022-08-19T12:25:58;10.13;;;7.72;;
45354;SDS011;31091;48.758;9.150;2022-08-19T12:28:44;11.48;;;7.70;;
45354;SDS011;31091;48.758;9.150;2022-08-19T12:31:29;10.75;;;7.45;;
45354;SDS011;31091;48.758;9.150;2022-08-19T12:34:15;9.65;;;7.32;;
45354;SDS011;31091;48.758;9.150;2022-08-19T12:37:02;11.25;;;7.45;;
45354;SDS011;31091;48.758;9.150;2022-08-19T12:39:48;10.98;;;7.50;;
45354;SDS011;31091;48.758;9.150;2022-08-19T12:42:33;11.88;;;7.88;;
45354;SDS011;31091;48.758;9.150;2022-08-19T12:45:20;8.75;;;7.35;;
45354;SDS011;31091;48.758;9.150;2022-08-19T12:48:05;11.52;;;7.53;;
45354;SDS011;31091;48.758;9.150;2022-08-19T12:50:51;9.90;;;7.65;;
45354;SDS011;31091;48.758;9.150;2022-08-19T12:53:36;12.55;;;7.35;;
45354;SDS011;31091;48.758;9.150;2022-08-19T12:56:22;11.57;;;8.00;;
45354;SDS011;31091;48.758;9.150;2022-08-19T12:59:08;12.88;;;8.27;;
45354;SDS011;31091;48.758;9.150;2022-08-19T13:01:54;9.63;;;7.50;;
45354;SDS011;31091;48.758;9.150;2022-08-19T13:04:39;10.27;;;7.40;;
45354;SDS011;31091;48.758;9.150;2022-08-19T13:07:26;12.45;;;8.38;;
45354;SDS011;31091;48.758;9.150;2022-08-19T13:10:12;12.77;;;8.00;;
45354;SDS011;31091;48.758;9.150;2022-08-19T13:12:58;13.98;;;8.18;;
45354;SDS011;31091;48.758;9.150;2022-08-19T13:15:44;11.75;;;7.07;;
45354;SDS011;31091;48.758;9.150;2022-08-19T13:18:30;11.73;;;8.90;;
45354;SDS011;31091;48.758;9.150;2022-08-19T13:21:17;15.07;;;9.60;;
45354;SDS011;31091;48.758;9.150;2022-08-19T13:24:05;12.52;;;10.77;;
45354;SDS011;31091;48.758;9.150;2022-08-19T13:26:50;18.83;;;11.55;;
45354;SDS011;31091;48.758;9.150;2022-08-19T13:29:36;15.75;;;13.20;;
45354;SDS011;31091;48.758;9.150;2022-08-19T13:32:40;22.60;;;15.80;;
45354;SDS011;31091;48.758;9.150;2022-08-19T13:35:46;21.35;;;16.35;;
45354;SDS011;31091;48.758;9.150;2022-08-19T13:38:32;19.80;;;16.58;;
45354;SDS011;31091;48.758;9.150;2022-08-19T13:41:17;17.95;;;15.55;;
45354;SDS011;31091;48.758;9.150;2022-08-19T13:44:04;22.25;;;18.92;;
45354;SDS011;31091;48.758;9.150;2022-08-19T13:46:51;21.67;;;16.70;;
45354;SDS011;31091;48.758;9.150;2022-08-19T13:49:38;22.58;;;18.77;;
45354;SDS011;31091;48.758;9.150;2022-08-19T13:52:24;19.67;;;16.77;;
45354;SDS011;31091;48.758;9.150;2022-08-19T13:55:10;19.95;;;16.45;;
45354;SDS011;31091;48.758;9.150;2022-08-19T13:57:58;21.88;;;16.15;;
45354;SDS011;31091;48.758;9.150;2022-08-19T14:00:44;22.25;;;18.10;;
45354;SDS011;31091;48.758;9.150;2022-08-19T14:03:31;24.90;;;18.02;;
45354;SDS011;31091;48.758;9.150;2022-08-19T14:06:29;20.27;;;18.13;;
45354;SDS011;31091;48.758;9.150;2022-08-19T14:09:18;21.77;;;17.65;;
45354;SDS011;31091;48.758;9.150;2022-08-19T14:12:03;22.20;;;19.35;;
45354;SDS011;31091;48.758;9.150;2022-08-19T14:14:50;23.70;;;18.10;;
45354;SDS011;31091;48.758;9.150;2022-08-19T14:17:39;23.67;;;17.70;;
45354;SDS011;31091;48.758;9.150;2022-08-19T14:20:25;22.33;;;18.15;;
45354;SDS011;31091;48.758;9.150;2022-08-19T14:23:18;19.98;;;17.55;;
45354;SDS011;31091;48.758;9.150;2022-08-19T14:26:09;19.52;;;17.33;;
45354;SDS011;31091;48.758;9.150;2022-08-19T14:28:55;20.35;;;17.17;;
45354;SDS011;31091;48.758;9.150;2022-08-19T14:31:42;24.15;;;18.85;;
45354;SDS011;31091;48.758;9.150;2022-08-19T14:34:28;19.90;;;16.52;;
45354;SDS011;31091;48.758;9.150;2022-08-19T14:37:14;18.90;;;16.55;;
45354;SDS011;31091;48.758;9.150;2022-08-19T14:40:00;21.95;;;18.17;;
45354;SDS011;31091;48.758;9.150;2022-08-19T14:42:45;20.33;;;18.27;;
45354;SDS011;31091;48.758;9.150;2022-08-19T14:45:36;19.80;;;17.05;;
45354;SDS011;31091;48.758;9.150;2022-08-19T14:48:22;18.98;;;15.75;;
45354;SDS011;31091;48.758;9.150;2022-08-19T14:51:08;18.00;;;15.25;;
45354;SDS011;31091;48.758;9.150;2022-08-19T14:53:54;16.20;;;13.88;;
45354;SDS011;31091;48.758;9.150;2022-08-19T14:56:39;18.55;;;14.95;;
45354;SDS011;31091;48.758;9.150;2022-08-19T14:59:25;17.77;;;15.40;;
45354;SDS011;31091;48.758;9.150;2022-08-19T15:02:29;21.15;;;15.40;;
45354;SDS011;31091;48.758;9.150;2022-08-19T15:05:36;17.20;;;13.23;;
45354;SDS011;31091;48.758;9.150;2022-08-19T15:08:22;16.48;;;13.93;;
45354;SDS011;31091;48.758;9.150;2022-08-19T15:11:14;16.00;;;13.55;;
45354;SDS011;31091;48.758;9.150;2022-08-19T15:14:01;17.33;;;13.77;;
45354;SDS011;31091;48.758;9.150;2022-08-19T15:16:46;14.93;;;13.32;;
45354;SDS011;31091;48.758;9.150;2022-08-19T15:19:32;13.43;;;12.00;;
45354;SDS011;31091;48.758;9.150;2022-08-19T15:22:18;14.30;;;10.95;;
45354;SDS011;31091;48.758;9.150;2022-08-19T15:25:05;21.15;;;13.07;;
45354;SDS011;31091;48.758;9.150;2022-08-19T15:27:50;17.58;;;11.88;;
45354;SDS011;31091;48.758;9.150;2022-08-19T15:30:38;19.02;;;12.40;;
45354;SDS011;31091;48.758;9.150;2022-08-19T15:33:24;13.73;;;11.65;;
45354;SDS011;31091;48.758;9.150;2022-08-19T15:36:11;16.88;;;11.80;;
45354;SDS011;31091;48.758;9.150;2022-08-19T15:38:57;14.73;;;11.52;;
45354;SDS011;31091;48.758;9.150;2022-08-19T15:41:43;13.35;;;11.30;;
45354;SDS011;31091;48.758;9.150;2022-08-19T15:44:28;12.70;;;10.95;;
45354;SDS011;31091;48.758;9.150;2022-08-19T15:47:14;14.50;;;11.93;;
45354;SDS011;31091;48.758;9.150;2022-08-19T15:50:00;13.15;;;10.93;;
45354;SDS011;31091;48.758;9.150;2022-08-19T15:52:50;17.38;;;11.93;;
45354;SDS011;31091;48.758;9.150;2022-08-19T15:55:41;14.68;;;12.07;;
45354;SDS011;31091;48.758;9.150;2022-08-19T15:58:43;13.93;;;10.93;;
45354;SDS011;31091;48.758;9.150;2022-08-19T16:01:47;16.35;;;12.25;;
45354;SDS011;31091;48.758;9.150;2022-08-19T16:04:52;16.23;;;11.02;;
45354;SDS011;31091;48.758;9.150;2022-08-19T16:07:56;16.85;;;12.10;;
45354;SDS011;31091;48.758;9.150;2022-08-19T16:10:43;16.63;;;12.63;;
45354;SDS011;31091;48.758;9.150;2022-08-19T16:13:44;17.08;;;11.77;;
45354;SDS011;31091;48.758;9.150;2022-08-19T16:16:31;13.70;;;10.50;;
45354;SDS011;31091;48.758;9.150;2022-08-19T16:19:18;12.18;;;10.85;;
45354;SDS011;31091;48.758;9.150;2022-08-19T16:22:04;12.88;;;9.70;;
45354;SDS011;31091;48.758;9.150;2022-08-19T16:24:50;13.65;;;10.98;;
45354;SDS011;31091;48.758;9.150;2022-08-19T16:27:35;11.35;;;9.52;;